Krymsk, Russia
Current Conditions -  °F | °C
As of 11:30 AM on Tuesday 21 Oct 2014 (Local Time) from URKA Reporting Station
Overcast Overcast  
Wind Chill: 59°   Ceiling: 2800
Heat Index: 59°   Visibility: 6mi
Dew Point: 50°   Wind: 20mph
Humidity: 72%   Direction: 220°SW
Pressure: 29.94"   Gusts: 27mph
Location:  44.92°N, 37.98°E
Report Text: URKA 210830Z 22009G12MPS 9999 BKN028 OVC110 15/10 Q1014 NOSIGRMK QFE756/1008 SC070
Loading
Personal Weather Stations






























Interactive Weather Map
Tropical Storm Tracking
New forecast layout! Learn more

10-Day Weather Forecast

Advertisements
Track Severe Weather on mobile